Time;durP1;ratioP1;P1;durP2;ratioP2;P2;SDS_P1;SDS_P2;PMS_P1;PMS_P2;Temp;Humidity;BMP_temperature;BMP_pressure;BME280_temperature;BME280_humidity;BME280_pressure;Samples;Min_cycle;Max_cycle;Signal;HPM_P1;HPM_P2
2021/12/20 00:01:12;;;;;;;;;;;;;;;10.89;62.12;101655.56;4959431;28;8438;-72
2021/12/20 00:03:38;;;;;;;;;;;;;;;10.89;62.18;101650.44;4959276;28;6796;-72
2021/12/20 00:06:04;;;;;;;;;;;;;;;10.90;61.76;101653.91;4958049;28;6799;-72
2021/12/20 00:08:31;;;;;;;;;;;;;;;10.91;61.99;101643.78;4943212;28;7326;-72
2021/12/20 00:10:56;;;;;;;;;;;;;;;10.90;62.32;101648.78;4961161;28;7647;-72
2021/12/20 00:13:23;;;;;;;;;;;;;;;10.90;62.35;101657.34;4958887;28;7047;-73
2021/12/20 00:15:49;;;;;;;;;;;;;;;10.88;62.21;101640.97;4943145;28;7013;-72
2021/12/20 00:18:14;;;;;;;;;;;;;;;10.88;62.22;101648.69;4942297;28;6796;-72
2021/12/20 00:20:40;;;;;;;;;;;;;;;10.89;62.29;101642.75;4959075;28;7130;-72
2021/12/20 00:23:06;;;;;;;;;;;;;;;10.90;62.34;101641.97;4925588;28;8527;-72
2021/12/20 00:25:33;;;;;;;;;;;;;;;10.91;61.99;101636.06;4942620;28;6811;-72
2021/12/20 00:28:00;;;;;;;;;;;;;;;10.92;62.24;101630.16;4959695;28;6804;-72
2021/12/20 00:30:27;;;;;;;;;;;;;;;10.91;61.70;101638.63;4957444;28;6804;-72
2021/12/20 00:32:52;;;;;;;;;;;;;;;10.90;62.26;101639.41;4960168;28;6788;-72
2021/12/20 00:35:19;;;;;;;;;;;;;;;10.89;62.04;101629.94;4959210;28;7035;-72
2021/12/20 00:40:30;;;;;;;;;;;;;;;10.88;61.81;101637.53;4956641;28;7146;-72
2021/12/20 00:43:00;;;;;;;;;;;;;;;10.84;61.99;101626.19;4957958;28;6882;-72
2021/12/20 00:45:32;;;;;;;;;;;;;;;10.84;62.19;101631.31;4958424;28;6812;-72
2021/12/20 00:47:59;;;;;;;;;;;;;;;10.86;61.82;101637.44;4957923;28;6796;-72
2021/12/20 00:50:26;;;;;;;;;;;;;;;10.87;62.08;101633.22;4960032;28;6804;-72
2021/12/20 00:52:53;;;;;;;;;;;;;;;10.88;62.13;101623.03;4942812;28;7478;-72
2021/12/20 00:55:23;;;;;;;;;;;;;;;10.88;62.13;101619.59;4957686;28;6812;-72
2021/12/20 00:57:51;;;;;;;;;;;;;;;10.89;61.92;101629.94;4955736;28;6820;-72
2021/12/20 01:00:23;;;;;;;;;;;;;;;10.89;62.04;101632.50;4970605;28;7367;-72
2021/12/20 01:02:51;;;;;;;;;;;;;;;10.91;61.83;101640.31;4957340;28;6812;-72
2021/12/20 01:05:18;;;;;;;;;;;;;;;10.90;62.10;101634.28;4957960;28;6804;-72
2021/12/20 01:07:43;;;;;;;;;;;;;;;10.91;62.11;101632.59;4942506;28;6855;-72
2021/12/20 01:10:10;;;;;;;;;;;;;;;10.90;62.03;101641.97;4960415;28;6796;-72
2021/12/20 01:12:45;;;;;;;;;;;;;;;10.93;62.01;101637.06;4957358;28;7335;-72
2021/12/20 01:15:17;;;;;;;;;;;;;;;10.93;62.29;101631.94;4943794;28;6812;-72
2021/12/20 01:17:43;;;;;;;;;;;;;;;10.94;62.09;101635.38;4957948;28;6966;-72
2021/12/20 01:20:10;;;;;;;;;;;;;;;10.92;61.92;101632.72;4959866;28;6843;-72
2021/12/20 01:22:36;;;;;;;;;;;;;;;10.91;61.59;101630.03;4943162;28;6796;-72
2021/12/20 01:25:02;;;;;;;;;;;;;;;10.89;62.03;101624.81;4962159;28;6788;-73
2021/12/20 01:27:28;;;;;;;;;;;;;;;10.89;61.60;101629.94;4957778;28;7320;-72
2021/12/20 01:29:54;;;;;;;;;;;;;;;10.89;61.99;101629.06;4959295;28;6812;-72
2021/12/20 01:32:20;;;;;;;;;;;;;;;10.91;61.90;101638.63;4960408;28;6786;-72
2021/12/20 01:34:46;;;;;;;;;;;;;;;10.93;61.91;101626.81;4941237;28;6970;-72
2021/12/20 01:37:13;;;;;;;;;;;;;;;10.93;61.82;101620.75;4959158;28;6785;-72
2021/12/20 01:39:39;;;;;;;;;;;;;;;10.94;61.80;101628.56;4958622;28;7915;-72
2021/12/20 01:42:05;;;;;;;;;;;;;;;10.95;61.56;101620.09;4942113;28;7206;-72
2021/12/20 01:44:31;;;;;;;;;;;;;;;10.94;61.86;101630.22;4960928;28;7241;-72
2021/12/20 01:47:00;;;;;;;;;;;;;;;10.93;61.65;101621.66;4955017;28;7185;-72
2021/12/20 01:49:26;;;;;;;;;;;;;;;10.91;61.91;101628.38;4958982;28;8230;-72
2021/12/20 01:54:23;;;;;;;;;;;;;;;10.91;61.85;101620.69;4956564;28;6823;-73
2021/12/20 01:56:49;;;;;;;;;;;;;;;10.92;61.66;101627.59;4940259;28;6808;-72
2021/12/20 01:59:15;;;;;;;;;;;;;;;10.91;61.57;101618.13;4942417;28;8073;-72
2021/12/20 02:01:42;;;;;;;;;;;;;;;10.91;61.66;101613.00;4957572;28;7143;-72
2021/12/20 02:04:09;;;;;;;;;;;;;;;10.90;61.66;101606.06;4957005;28;7930;-72
2021/12/20 02:06:40;;;;;;;;;;;;;;;10.91;61.81;101610.44;4939341;28;6824;-72
2021/12/20 02:09:14;;;;;;;;;;;;;;;10.92;61.39;101614.75;4955868;28;7020;-72
2021/12/20 02:11:45;;;;;;;;;;;;;;;10.93;61.56;101610.50;4963572;28;7166;-72
2021/12/20 02:14:12;;;;;;;;;;;;;;;10.93;61.03;101620.75;4946405;28;6812;-72
2021/12/20 02:16:42;;;;;;;;;;;;;;;10.93;61.59;101623.34;4936074;28;6963;-72
2021/12/20 02:19:13;;;;;;;;;;;;;;;10.93;61.61;101621.66;4945394;28;6812;-72
2021/12/20 02:21:41;;;;;;;;;;;;;;;10.90;61.49;101611.19;4961165;28;6849;-72
2021/12/20 02:24:07;;;;;;;;;;;;;;;10.91;61.62;101618.13;4960990;28;7162;-72
2021/12/20 02:26:33;;;;;;;;;;;;;;;10.90;61.67;101629.13;4959408;28;7441;-72
2021/12/20 02:29:04;;;;;;;;;;;;;;;10.88;61.20;101623.03;4960329;28;7853;-72
2021/12/20 02:39:46;;;;;;;;;;;;;;;10.83;61.73;101607.34;4962065;28;7003;-72
2021/12/20 02:42:16;;;;;;;;;;;;;;;10.83;61.12;101609.91;4944082;28;6900;-72
2021/12/20 02:44:59;;;;;;;;;;;;;;;10.84;61.64;101605.66;4962924;28;7045;-72
2021/12/20 02:47:28;;;;;;;;;;;;;;;10.82;61.24;101605.56;4974623;28;6824;-72
2021/12/20 02:49:58;;;;;;;;;;;;;;;10.83;60.92;101609.03;4963080;28;6819;-72
2021/12/20 02:52:24;;;;;;;;;;;;;;;10.83;61.08;101601.34;4957575;28;6951;-72
2021/12/20 02:54:50;;;;;;;;;;;;;;;10.82;61.02;101597.88;4950841;28;6985;-73
2021/12/20 02:57:16;;;;;;;;;;;;;;;10.81;61.28;101605.44;4954799;28;7916;-73
2021/12/20 02:59:41;;;;;;;;;;;;;;;10.80;60.90;101601.09;4961764;28;6844;-72
2021/12/20 03:02:10;;;;;;;;;;;;;;;10.78;61.19;101600.13;4962552;28;7180;-72
2021/12/20 03:04:37;;;;;;;;;;;;;;;10.77;61.01;101608.59;4947130;28;6977;-72
2021/12/20 03:07:09;;;;;;;;;;;;;;;10.75;60.64;101611.06;4980261;28;7095;-72
2021/12/20 03:09:42;;;;;;;;;;;;;;;10.72;61.18;101604.84;4964967;28;8944;-72
2021/12/20 03:12:12;;;;;;;;;;;;;;;10.68;60.92;101604.63;4948032;28;8075;-72
2021/12/20 03:14:43;;;;;;;;;;;;;;;10.67;61.51;101602.88;4966629;28;7263;-72
2021/12/20 03:17:11;;;;;;;;;;;;;;;10.64;61.20;101597.53;4963905;28;7115;-72
2021/12/20 03:19:37;;;;;;;;;;;;;;;10.65;61.09;101606.09;4960907;28;7495;-72
2021/12/20 03:22:07;;;;;;;;;;;;;;;10.65;61.10;101608.66;4966000;28;6791;-72
2021/12/20 03:24:33;;;;;;;;;;;;;;;10.66;61.47;101597.63;4948206;28;6961;-72
2021/12/20 03:26:59;;;;;;;;;;;;;;;10.66;61.42;101605.31;4978441;28;7199;-71
2021/12/20 03:29:25;;;;;;;;;;;;;;;10.65;61.49;101612.13;4963036;28;6851;-71
2021/12/20 03:31:51;;;;;;;;;;;;;;;10.64;61.45;101612.03;4963945;28;7032;-72
2021/12/20 03:34:20;;;;;;;;;;;;;;;10.62;61.24;101611.94;4947920;28;6996;-72
2021/12/20 03:36:45;;;;;;;;;;;;;;;10.60;61.15;101613.47;4963732;28;6816;-72
2021/12/20 03:39:11;;;;;;;;;;;;;;;10.59;61.30;101615.97;4929614;28;7170;-72
2021/12/20 03:41:39;;;;;;;;;;;;;;;10.56;61.65;101604.69;4965219;28;6883;-72
2021/12/20 03:44:06;;;;;;;;;;;;;;;10.57;61.18;101610.72;4963461;28;7537;-72
2021/12/20 03:46:32;;;;;;;;;;;;;;;10.58;61.24;101606.50;4958837;28;6808;-72
2021/12/20 03:48:58;;;;;;;;;;;;;;;10.60;61.28;101602.34;4965017;28;7178;-73
2021/12/20 03:51:23;;;;;;;;;;;;;;;10.60;61.33;101612.63;4945437;28;6960;-72
2021/12/20 03:53:49;;;;;;;;;;;;;;;10.60;60.88;101610.06;4964931;28;7075;-72
2021/12/20 03:56:15;;;;;;;;;;;;;;;10.56;61.08;101607.25;4962398;28;6867;-71
2021/12/20 03:58:41;;;;;;;;;;;;;;;10.55;61.18;101602.06;4964726;28;7045;-72
2021/12/20 04:01:10;;;;;;;;;;;;;;;10.55;61.08;101597.78;4963706;28;6815;-72
2021/12/20 04:03:38;;;;;;;;;;;;;;;10.55;61.23;101599.50;4959138;28;6812;-72
2021/12/20 04:06:08;;;;;;;;;;;;;;;10.55;60.86;101604.63;4942914;28;7086;-72
2021/12/20 04:08:34;;;;;;;;;;;;;;;10.54;60.82;101610.53;4958272;28;6824;-72
2021/12/20 04:11:01;;;;;;;;;;;;;;;10.53;60.94;101598.50;4961264;28;6993;-72
2021/12/20 04:13:27;;;;;;;;;;;;;;;10.51;61.11;101594.91;4960863;28;6824;-72
2021/12/20 04:15:53;;;;;;;;;;;;;;;10.48;60.81;101603.31;4959714;28;6796;-72
2021/12/20 04:18:21;;;;;;;;;;;;;;;10.48;60.67;101604.97;4957255;28;6820;-72
2021/12/20 04:20:46;;;;;;;;;;;;;;;10.48;60.71;101610.09;4960803;28;6812;-71
2021/12/20 04:23:12;;;;;;;;;;;;;;;10.47;60.86;101614.31;4960399;28;6796;-72
2021/12/20 04:25:38;;;;;;;;;;;;;;;10.47;60.79;101616.03;4959303;28;7075;-72
2021/12/20 04:28:05;;;;;;;;;;;;;;;10.46;60.53;101615.13;4955314;28;6906;-72
2021/12/20 04:30:31;;;;;;;;;;;;;;;10.46;61.11;101616.81;4958502;28;7212;-72
2021/12/20 04:32:58;;;;;;;;;;;;;;;10.45;60.54;101609.91;4945172;28;7231;-72
2021/12/20 04:35:24;;;;;;;;;;;;;;;10.45;60.69;101615.03;4961561;28;6820;-72
2021/12/20 04:37:53;;;;;;;;;;;;;;;10.46;60.52;101616.81;4956978;28;7243;-72
2021/12/20 04:40:21;;;;;;;;;;;;;;;10.46;60.44;101619.38;4959544;28;7026;-72
2021/12/20 04:42:56;;;;;;;;;;;;;;;10.45;60.48;101618.47;4974502;28;7024;-72
2021/12/20 04:45:23;;;;;;;;;;;;;;;10.42;60.41;101611.44;4954225;28;7102;-72
2021/12/20 04:47:49;;;;;;;;;;;;;;;10.41;60.33;101611.34;4943269;28;6884;-72
2021/12/20 04:50:16;;;;;;;;;;;;;;;10.41;60.58;101611.34;4956333;28;6971;-72
2021/12/20 04:52:42;;;;;;;;;;;;;;;10.39;60.40;101602.66;4958466;28;8105;-72
2021/12/20 04:55:11;;;;;;;;;;;;;;;10.38;60.49;101612.00;4959878;28;6784;-72
2021/12/20 04:57:38;;;;;;;;;;;;;;;10.38;60.59;101604.31;4958195;28;6824;-72
2021/12/20 05:00:13;;;;;;;;;;;;;;;10.39;60.86;101602.66;4958939;28;6812;-72
2021/12/20 05:02:39;;;;;;;;;;;;;;;10.40;60.56;101605.31;4944085;28;7002;-72
2021/12/20 05:05:05;;;;;;;;;;;;;;;10.42;60.56;101606.31;4954361;28;6792;-72
2021/12/20 05:07:31;;;;;;;;;;;;;;;10.41;60.03;101599.41;4940047;28;7337;-72
2021/12/20 05:10:01;;;;;;;;;;;;;;;10.42;60.50;101605.44;4953993;28;7281;-72
2021/12/20 05:12:26;;;;;;;;;;;;;;;10.39;59.94;101602.66;4957718;28;7164;-72
2021/12/20 05:14:52;;;;;;;;;;;;;;;10.36;60.30;101607.56;4959885;28;7900;-72
2021/12/20 05:17:18;;;;;;;;;;;;;;;10.33;59.86;101610.78;4956774;28;6780;-72
2021/12/20 05:19:43;;;;;;;;;;;;;;;10.31;60.21;101612.38;4943761;28;7169;-72
2021/12/20 05:22:11;;;;;;;;;;;;;;;10.28;59.53;101607.03;4961111;28;7288;-72
2021/12/20 05:24:38;;;;;;;;;;;;;;;10.25;60.07;101600.03;4940948;28;6868;-72
2021/12/20 05:27:05;;;;;;;;;;;;;;;10.25;59.96;101606.84;4957758;28;6804;-72
2021/12/20 05:29:31;;;;;;;;;;;;;;;10.24;59.67;101605.06;4958808;28;6959;-72
2021/12/20 05:31:58;;;;;;;;;;;;;;;10.24;60.09;101602.50;4956985;28;7145;-72
2021/12/20 05:34:24;;;;;;;;;;;;;;;10.24;60.06;101599.94;4956945;28;6965;-72
2021/12/20 05:36:50;;;;;;;;;;;;;;;10.26;59.57;101604.38;4941849;28;7202;-72
2021/12/20 05:39:15;;;;;;;;;;;;;;;10.28;60.21;101601.91;4959944;28;6796;-72
2021/12/20 05:41:41;;;;;;;;;;;;;;;10.30;59.30;101608.03;4958499;28;8123;-72
2021/12/20 05:44:07;;;;;;;;;;;;;;;10.31;59.23;101608.94;4960255;28;6804;-72
2021/12/20 05:46:33;;;;;;;;;;;;;;;10.32;59.50;101613.25;4946506;28;7006;-72
2021/12/20 05:48:59;;;;;;;;;;;;;;;10.33;59.08;101610.78;4935634;28;6804;-72
2021/12/20 05:51:25;;;;;;;;;;;;;;;10.35;59.33;101610.91;4947044;28;7138;-72
2021/12/20 05:53:51;;;;;;;;;;;;;;;10.34;59.13;101611.69;4946088;28;6871;-72
2021/12/20 05:56:16;;;;;;;;;;;;;;;10.35;58.87;101616.94;4961135;28;7259;-71
2021/12/20 05:58:42;;;;;;;;;;;;;;;10.37;58.85;101627.28;4963242;28;7972;-72
2021/12/20 06:01:08;;;;;;;;;;;;;;;10.35;59.22;101616.94;4960673;28;7310;-72
2021/12/20 06:03:33;;;;;;;;;;;;;;;10.35;59.43;101623.72;4957532;28;7154;-72
2021/12/20 06:05:59;;;;;;;;;;;;;;;10.32;59.08;101614.13;4962539;28;6875;-72
2021/12/20 06:08:25;;;;;;;;;;;;;;;10.30;58.74;101620.84;4961747;28;6788;-72
2021/12/20 06:10:51;;;;;;;;;;;;;;;10.29;58.37;101624.19;4962354;28;7146;-72
2021/12/20 06:13:17;;;;;;;;;;;;;;;10.25;58.82;101628.22;4963283;28;6877;-72
2021/12/20 06:15:42;;;;;;;;;;;;;;;10.22;59.26;101627.09;4972655;28;6930;-72
2021/12/20 06:18:08;;;;;;;;;;;;;;;10.22;59.25;101630.56;4963496;28;7005;-72
2021/12/20 06:20:34;;;;;;;;;;;;;;;10.20;58.99;101631.25;4965885;28;6804;-72
2021/12/20 06:23:00;;;;;;;;;;;;;;;10.17;58.74;101631.91;4973599;28;7461;-72
2021/12/20 06:25:26;;;;;;;;;;;;;;;10.16;59.01;101637.81;4945317;28;6887;-72
2021/12/20 06:27:53;;;;;;;;;;;;;;;10.16;58.94;101634.38;4961272;28;7157;-72
2021/12/20 06:30:19;;;;;;;;;;;;;;;10.14;58.83;101631.72;4963350;28;7947;-72
2021/12/20 06:32:45;;;;;;;;;;;;;;;10.13;58.06;101629.94;4965654;28;6792;-72
2021/12/20 06:35:13;;;;;;;;;;;;;;;10.12;57.59;101633.28;4958233;28;6951;-72
2021/12/20 06:37:48;;;;;;;;;;;;;;;10.12;58.01;101631.59;4959947;28;6809;-72
2021/12/20 06:40:14;;;;;;;;;;;;;;;10.12;57.36;101638.41;4946560;28;6804;-72
2021/12/20 06:42:40;;;;;;;;;;;;;;;10.10;57.65;101630.59;4918814;28;6973;-73
2021/12/20 06:45:07;;;;;;;;;;;;;;;10.10;57.41;101628.03;4946328;28;6883;-72
2021/12/20 06:47:34;;;;;;;;;;;;;;;10.11;56.97;101636.63;4959626;28;7288;-72
2021/12/20 06:50:01;;;;;;;;;;;;;;;10.11;57.45;101640.06;4978554;28;8710;-72
2021/12/20 06:52:27;;;;;;;;;;;;;;;10.12;57.41;101635.84;4963144;28;6887;-72
2021/12/20 06:54:52;;;;;;;;;;;;;;;10.13;57.34;101638.50;4946731;28;6780;-72
2021/12/20 06:57:21;;;;;;;;;;;;;;;10.15;57.02;101641.16;4961536;28;6847;-72
2021/12/20 06:59:47;;;;;;;;;;;;;;;10.14;57.45;101642.84;4964488;28;6811;-72
2021/12/20 07:02:13;;;;;;;;;;;;;;;10.13;57.32;101641.06;4961396;28;6828;-72
2021/12/20 07:04:39;;;;;;;;;;;;;;;10.14;56.45;101639.41;4964833;28;6796;-72
2021/12/20 07:07:05;;;;;;;;;;;;;;;10.17;56.44;101636.16;4956711;28;6807;-72
2021/12/20 07:09:30;;;;;;;;;;;;;;;10.18;56.97;101645.63;4945667;28;7166;-72
2021/12/20 07:11:56;;;;;;;;;;;;;;;10.18;56.69;101636.25;4963736;28;7213;-71
2021/12/20 07:14:26;;;;;;;;;;;;;;;10.19;56.35;101629.47;4958176;28;6792;-72
2021/12/20 07:16:55;;;;;;;;;;;;;;;10.20;56.49;101636.38;4962234;28;6974;-72
2021/12/20 07:19:21;;;;;;;;;;;;;;;10.20;56.19;101639.84;4962777;28;6820;-72
2021/12/20 07:21:47;;;;;;;;;;;;;;;10.19;56.12;101652.53;4939324;28;6809;-72
2021/12/20 07:24:13;;;;;;;;;;;;;;;10.17;55.75;101647.28;4960816;28;6883;-72
2021/12/20 07:26:44;;;;;;;;;;;;;;;10.17;55.72;101648.97;4957536;28;6954;-72
2021/12/20 07:29:10;;;;;;;;;;;;;;;10.16;55.67;101648.06;4963178;28;6804;-72
2021/12/20 07:31:36;;;;;;;;;;;;;;;10.13;56.11;101653.84;4963907;28;6800;-72
2021/12/20 07:34:02;;;;;;;;;;;;;;;10.12;55.78;101656.34;4962331;28;6867;-72
2021/12/20 07:36:27;;;;;;;;;;;;;;;10.10;56.10;101656.22;4946891;28;6796;-72
2021/12/20 07:38:53;;;;;;;;;;;;;;;10.09;55.43;101657.00;4963305;28;6808;-72
2021/12/20 07:41:21;;;;;;;;;;;;;;;10.10;55.68;101652.78;4962241;28;7811;-72
2021/12/20 07:43:50;;;;;;;;;;;;;;;10.10;55.59;101653.66;4945275;28;7144;-72
2021/12/20 07:46:17;;;;;;;;;;;;;;;10.09;55.28;101662.13;4961377;28;6904;-73
2021/12/20 07:48:43;;;;;;;;;;;;;;;10.07;55.30;101656.00;4944937;28;6800;-72
2021/12/20 07:51:09;;;;;;;;;;;;;;;10.09;55.11;101657.00;4960801;28;7019;-72
2021/12/20 07:53:35;;;;;;;;;;;;;;;10.09;55.34;101656.09;4979319;28;7129;-72
2021/12/20 07:56:01;;;;;;;;;;;;;;;10.09;55.44;101662.13;4944995;28;6977;-72
2021/12/20 07:58:27;;;;;;;;;;;;;;;10.09;55.80;101667.25;4963969;28;6987;-72
2021/12/20 08:00:52;;;;;;;;;;;;;;;10.09;55.32;101667.25;4977270;28;6945;-72
2021/12/20 08:03:18;;;;;;;;;;;;;;;10.10;54.72;101669.03;4963523;28;7011;-72
2021/12/20 08:05:45;;;;;;;;;;;;;;;10.11;54.96;101665.69;4961364;28;6812;-72
2021/12/20 08:08:11;;;;;;;;;;;;;;;10.13;55.31;101665.78;4975399;28;7431;-72
2021/12/20 08:10:37;;;;;;;;;;;;;;;10.14;55.17;101668.47;4960641;28;6808;-72
2021/12/20 08:13:03;;;;;;;;;;;;;;;10.17;54.50;101661.78;4963031;28;6776;-72
2021/12/20 08:15:29;;;;;;;;;;;;;;;10.16;55.64;101665.13;4959481;28;6784;-72
2021/12/20 08:17:56;;;;;;;;;;;;;;;10.18;55.29;101671.25;4962693;28;7069;-72
2021/12/20 08:20:23;;;;;;;;;;;;;;;10.20;55.48;101662.00;4960699;28;6804;-72
2021/12/20 08:22:49;;;;;;;;;;;;;;;10.21;54.98;101661.19;4963599;28;6975;-72
2021/12/20 08:25:18;;;;;;;;;;;;;;;10.22;55.47;101663.88;4963339;28;7247;-72
2021/12/20 08:27:44;;;;;;;;;;;;;;;10.23;54.68;101667.31;4960849;28;6819;-72
2021/12/20 08:30:11;;;;;;;;;;;;;;;10.24;54.85;101661.44;4962515;28;6982;-72
2021/12/20 08:32:38;;;;;;;;;;;;;;;10.27;55.07;101671.88;4962039;28;6807;-72
2021/12/20 08:35:07;;;;;;;;;;;;;;;10.28;55.66;101673.66;4962739;28;7360;-72
2021/12/20 08:37:33;;;;;;;;;;;;;;;10.30;55.03;101679.78;4947310;28;6966;-72
2021/12/20 08:39:58;;;;;;;;;;;;;;;10.30;55.02;101668.66;4961664;28;6967;-72
2021/12/20 08:42:24;;;;;;;;;;;;;;;10.32;55.01;101673.06;4946500;28;6883;-72
2021/12/20 08:44:50;;;;;;;;;;;;;;;10.34;55.26;101674.09;4962072;28;6878;-72
2021/12/20 08:47:17;;;;;;;;;;;;;;;10.35;55.24;101670.75;4961640;28;6891;-72
2021/12/20 08:49:43;;;;;;;;;;;;;;;10.35;54.73;101675.88;4963060;28;7940;-72
2021/12/20 08:52:10;;;;;;;;;;;;;;;10.37;55.03;101684.56;4943511;28;8074;-72
2021/12/20 08:54:36;;;;;;;;;;;;;;;10.37;54.72;101681.09;4946230;28;6934;-72
2021/12/20 08:57:02;;;;;;;;;;;;;;;10.38;55.16;101681.22;4962736;28;6934;-72
2021/12/20 08:59:28;;;;;;;;;;;;;;;10.41;55.08;101688.22;4960537;28;6816;-72
2021/12/20 09:01:54;;;;;;;;;;;;;;;10.45;55.36;101686.81;4962943;28;6816;-72
2021/12/20 09:04:20;;;;;;;;;;;;;;;10.48;55.00;101687.00;4961207;28;6784;-72
2021/12/20 09:06:48;;;;;;;;;;;;;;;10.52;54.88;101691.53;4959659;28;6812;-72
2021/12/20 09:09:15;;;;;;;;;;;;;;;10.54;55.63;101682.31;4960433;28;7282;-72
2021/12/20 09:11:44;;;;;;;;;;;;;;;10.54;55.06;101680.63;4960645;28;6812;-72
2021/12/20 09:14:11;;;;;;;;;;;;;;;10.56;55.25;101684.16;4962105;28;6816;-72
2021/12/20 09:16:37;;;;;;;;;;;;;;;10.61;55.09;101688.75;4962131;28;6827;-72
2021/12/20 09:19:03;;;;;;;;;;;;;;;10.63;55.33;101692.28;4960138;28;6961;-72
2021/12/20 09:21:29;;;;;;;;;;;;;;;10.67;55.33;101691.69;4929478;28;8040;-72
2021/12/20 09:23:56;;;;;;;;;;;;;;;10.71;54.99;101696.28;4960928;28;6784;-72
2021/12/20 09:26:21;;;;;;;;;;;;;;;10.74;55.16;101695.59;4959908;28;7304;-72
2021/12/20 09:28:47;;;;;;;;;;;;;;;10.76;55.65;101697.47;4962388;28;6871;-72
2021/12/20 09:31:13;;;;;;;;;;;;;;;10.79;55.17;101691.66;4958826;28;6859;-72
2021/12/20 09:33:39;;;;;;;;;;;;;;;10.81;55.12;101695.22;4957379;28;6812;-72
2021/12/20 09:36:06;;;;;;;;;;;;;;;10.81;55.16;101696.09;4958972;28;6928;-72
2021/12/20 09:38:32;;;;;;;;;;;;;;;10.84;55.39;101701.44;4960725;28;7337;-72
2021/12/20 09:43:54;;;;;;;;;;;;;;;10.84;54.86;101715.94;4961850;28;6899;-72
2021/12/20 09:46:24;;;;;;;;;;;;;;;10.81;54.51;101715.72;4958178;28;6808;-72
2021/12/20 09:48:50;;;;;;;;;;;;;;;10.76;54.29;101712.84;4945745;28;6807;-72
2021/12/20 09:51:17;;;;;;;;;;;;;;;10.74;54.53;101709.28;4944469;28;6958;-72
2021/12/20 09:53:43;;;;;;;;;;;;;;;10.74;55.21;101716.13;4959797;28;7129;-72
2021/12/20 09:56:09;;;;;;;;;;;;;;;10.76;55.20;101710.28;4960949;28;6820;-72
2021/12/20 09:58:39;;;;;;;;;;;;;;;10.78;54.86;101719.00;4962205;28;7151;-72
2021/12/20 10:01:12;;;;;;;;;;;;;;;10.81;55.15;101714.06;4943658;28;7372;-72
2021/12/20 10:03:38;;;;;;;;;;;;;;;10.83;54.79;101717.63;4958367;28;7025;-72
2021/12/20 10:06:05;;;;;;;;;;;;;;;10.88;55.00;101717.06;4939801;28;7417;-72
2021/12/20 10:08:37;;;;;;;;;;;;;;;10.93;54.94;101719.16;4958267;28;7146;-72
2021/12/20 10:11:17;;;;;;;;;;;;;;;10.98;54.99;101717.75;4954526;28;6820;-72
2021/12/20 10:13:43;;;;;;;;;;;;;;;11.04;54.94;101716.41;4957900;28;6816;-72
2021/12/20 10:16:19;;;;;;;;;;;;;;;11.09;54.95;101717.59;4941426;28;7150;-72
2021/12/20 10:18:45;;;;;;;;;;;;;;;11.15;54.87;101720.56;4959572;28;6812;-72
2021/12/20 10:21:11;;;;;;;;;;;;;;;11.20;54.53;101723.44;4954280;28;7181;-71
2021/12/20 10:23:47;;;;;;;;;;;;;;;11.23;54.90;101721.97;4960975;28;6788;-72
2021/12/20 10:26:23;;;;;;;;;;;;;;;11.29;54.72;101725.72;4943423;28;7275;-72
2021/12/20 10:28:53;;;;;;;;;;;;;;;11.32;54.94;101724.25;4959107;28;6792;-72
2021/12/20 10:31:24;;;;;;;;;;;;;;;11.36;54.58;101725.34;4961491;28;6967;-72
2021/12/20 10:34:01;;;;;;;;;;;;;;;11.37;54.88;101716.84;4961185;28;6811;-72
2021/12/20 10:36:28;;;;;;;;;;;;;;;11.40;54.25;101717.09;4959875;28;7295;-72
2021/12/20 10:39:00;;;;;;;;;;;;;;;11.42;54.23;101712.03;4963244;28;7260;-72
2021/12/20 10:41:37;;;;;;;;;;;;;;;11.45;54.33;101715.69;4962533;28;6816;-72
2021/12/20 10:44:20;;;;;;;;;;;;;;;11.48;54.67;101705.59;4962911;28;6823;-72
2021/12/20 10:46:53;;;;;;;;;;;;;;;11.52;54.70;101712.75;4960907;28;6843;-72
2021/12/20 10:49:27;;;;;;;;;;;;;;;11.54;54.16;101710.28;4974269;28;7247;-72
2021/12/20 10:51:54;;;;;;;;;;;;;;;11.55;54.11;101706.03;4944802;28;7027;-72
2021/12/20 10:54:25;;;;;;;;;;;;;;;11.57;54.41;101709.56;4958345;28;7148;-72
2021/12/20 10:56:57;;;;;;;;;;;;;;;11.69;54.47;101707.81;4963090;28;6819;-72
2021/12/20 10:59:27;;;;;;;;;;;;;;;11.94;53.97;101710.28;4946360;28;7082;-72
2021/12/20 11:04:27;;;;;;;;;;;;;;;12.29;54.23;101702.13;4959922;28;6973;-72
2021/12/20 11:09:33;;;;;;;;;;;;;;;12.84;52.57;101703.69;4960508;28;7019;-72
2021/12/20 11:12:04;;;;;;;;;;;;;;;13.05;52.38;101697.25;4960036;28;6819;-72
2021/12/20 11:14:34;;;;;;;;;;;;;;;13.26;52.19;101707.00;4946853;28;6820;-73
2021/12/20 11:17:05;;;;;;;;;;;;;;;13.48;51.06;101698.00;4958460;28;6851;-73
2021/12/20 11:19:36;;;;;;;;;;;;;;;13.71;50.59;101700.97;4961686;28;7018;-73
2021/12/20 11:22:05;;;;;;;;;;;;;;;13.94;49.88;101691.94;4946278;28;7210;-73
2021/12/20 11:24:31;;;;;;;;;;;;;;;14.11;50.34;101690.28;4962118;28;7062;-72
2021/12/20 11:26:59;;;;;;;;;;;;;;;14.22;49.06;101689.97;4962440;28;7285;-72
2021/12/20 11:29:26;;;;;;;;;;;;;;;14.25;49.59;101696.16;4957271;28;6828;-73
2021/12/20 11:31:55;;;;;;;;;;;;;;;14.20;48.72;101696.72;4959974;28;7070;-73
2021/12/20 11:34:22;;;;;;;;;;;;;;;14.08;48.59;101696.94;4959904;28;6832;-72
2021/12/20 11:36:48;;;;;;;;;;;;;;;13.93;48.75;101695.31;4962752;28;6959;-72
2021/12/20 11:39:14;;;;;;;;;;;;;;;13.99;48.45;101693.06;4945026;28;7192;-72
2021/12/20 11:41:40;;;;;;;;;;;;;;;14.21;48.97;101689.09;4960220;28;6825;-72
2021/12/20 11:44:16;;;;;;;;;;;;;;;14.50;48.42;101692.31;4943434;28;6888;-72
2021/12/20 11:46:54;;;;;;;;;;;;;;;14.72;47.76;101689.19;4958906;28;7158;-72
2021/12/20 11:49:23;;;;;;;;;;;;;;;14.91;47.26;101681.50;4954796;28;6820;-72
2021/12/20 11:52:18;;;;;;;;;;;;;;;15.10;47.08;101681.63;4959577;28;6808;-72
2021/12/20 11:54:54;;;;;;;;;;;;;;;15.30;46.87;101666.22;4962751;28;7172;-72
2021/12/20 11:57:38;;;;;;;;;;;;;;;15.27;46.98;101679.00;4975135;28;6947;-72
2021/12/20 12:00:17;;;;;;;;;;;;;;;15.48;46.05;101667.94;4961190;28;6887;-72
2021/12/20 12:02:45;;;;;;;;;;;;;;;15.69;45.83;101660.28;4974996;28;6995;-72
2021/12/20 12:05:18;;;;;;;;;;;;;;;15.79;45.37;101667.69;4945281;28;6796;-72
2021/12/20 12:07:46;;;;;;;;;;;;;;;15.44;44.90;101659.16;4961182;28;6820;-73
2021/12/20 12:10:16;;;;;;;;;;;;;;;14.85;45.76;101672.63;4962144;28;6884;-72
2021/12/20 12:12:45;;;;;;;;;;;;;;;14.25;45.98;101666.94;4963561;28;7209;-72
2021/12/20 12:15:16;;;;;;;;;;;;;;;13.70;47.18;101670.84;4935692;28;6832;-72
2021/12/20 12:17:49;;;;;;;;;;;;;;;13.20;47.55;101675.78;4958433;28;7010;-72
2021/12/20 12:20:34;;;;;;;;;;;;;;;12.79;48.12;101680.28;4928500;28;6967;-72
2021/12/20 12:23:10;;;;;;;;;;;;;;;12.40;48.29;101672.81;4959745;28;6820;-72
2021/12/20 12:25:44;;;;;;;;;;;;;;;12.15;48.64;101676.47;4959527;28;7074;-72
2021/12/20 12:28:13;;;;;;;;;;;;;;;11.95;48.72;101670.03;4961665;28;6819;-72
2021/12/20 12:30:42;;;;;;;;;;;;;;;11.80;49.08;101681.13;4956215;28;6804;-72
2021/12/20 12:33:13;;;;;;;;;;;;;;;11.67;49.39;101670.84;4977021;28;6804;-72
2021/12/20 12:35:39;;;;;;;;;;;;;;;11.59;49.55;101679.75;4963900;28;6780;-73
2021/12/20 12:38:27;;;;;;;;;;;;;;;11.51;49.68;101675.03;4961501;28;6815;-72
2021/12/20 12:41:05;;;;;;;;;;;;;;;11.46;49.97;101671.25;4958938;28;7341;-72
2021/12/20 12:44:18;;;;;;;;;;;;;;;11.42;49.80;101671.84;4961769;28;6982;-72
2021/12/20 12:46:53;;;;;;;;;;;;;;;11.41;50.38;101671.75;4966142;28;6988;-73
2021/12/20 12:49:26;;;;;;;;;;;;;;;11.41;50.19;101666.63;4939720;28;6828;-72
2021/12/20 12:51:54;;;;;;;;;;;;;;;11.43;50.23;101665.03;4954307;28;6939;-72
2021/12/20 12:54:45;;;;;;;;;;;;;;;11.43;50.30;101665.94;4957654;28;6824;-72
2021/12/20 12:57:11;;;;;;;;;;;;;;;11.41;50.13;101664.03;4958337;28;7141;-72
2021/12/20 13:00:06;;;;;;;;;;;;;;;11.35;50.09;101667.09;4961025;28;7700;-72
2021/12/20 13:02:40;;;;;;;;;;;;;;;11.25;49.77;101674.19;4958483;28;7078;-72
2021/12/20 13:05:15;;;;;;;;;;;;;;;11.14;49.94;101662.34;4954624;28;7025;-72
2021/12/20 13:07:53;;;;;;;;;;;;;;;11.06;49.97;101668.66;4959439;28;6908;-72
2021/12/20 13:10:34;;;;;;;;;;;;;;;10.96;50.10;101657.78;4958761;28;6820;-72
2021/12/20 13:13:11;;;;;;;;;;;;;;;10.92;50.48;101670.28;4942739;28;7090;-72
2021/12/20 13:18:14;;;;;;;;;;;;;;;10.92;50.38;101668.63;4958584;28;7166;-72